Time;durP1;ratioP1;P1;durP2;ratioP2;P2;SDS_P1;SDS_P2;PMS_P1;PMS_P2;Temp;Humidity;BMP_temperature;BMP_pressure;BME280_temperature;BME280_humidity;BME280_pressure;Samples;Min_cycle;Max_cycle;Signal;HPM_P1;HPM_P2
2021/09/13 00:01:31;;;;;;;1.10;0.80;;;;;;;21.98;54.88;101998.31;5035631;28;20459;-78
2021/09/13 00:03:56;;;;;;;1.13;0.80;;;;;;;21.99;54.97;101999.22;5017455;28;20022;-76
2021/09/13 00:06:21;;;;;;;2.15;1.08;;;;;;;22.00;54.79;101990.44;5035315;28;20092;-78
2021/09/13 00:08:47;;;;;;;1.40;0.95;;;;;;;22.02;54.81;101991.31;5020900;28;20053;-77
2021/09/13 00:11:12;;;;;;;1.50;0.70;;;;;;;22.01;54.77;101992.19;5001270;28;20037;-78
2021/09/13 00:13:37;;;;;;;1.80;0.70;;;;;;;22.02;54.81;101993.94;5027832;28;20034;-77
2021/09/13 00:16:04;;;;;;;1.38;0.80;;;;;;;21.98;54.92;101985.13;5036927;28;20068;-77
2021/09/13 00:18:29;;;;;;;1.33;1.23;;;;;;;21.99;54.95;101983.41;5036691;28;20479;-78
2021/09/13 00:20:55;;;;;;;1.02;0.80;;;;;;;21.98;54.77;101979.00;5036580;28;20120;-77
2021/09/13 00:23:20;;;;;;;1.17;0.88;;;;;;;22.02;54.71;101991.31;5038126;28;20036;-77
2021/09/13 00:25:47;;;;;;;1.73;0.82;;;;;;;21.95;54.71;101973.72;5038819;28;20148;-77
2021/09/13 00:28:13;;;;;;;1.20;0.80;;;;;;;22.02;54.92;101988.69;5037754;28;20056;-77
2021/09/13 00:30:38;;;;;;;4.43;1.10;;;;;;;22.02;54.89;101996.59;5038521;28;20041;-77
2021/09/13 00:33:03;;;;;;;1.67;1.00;;;;;;;21.97;54.95;101983.38;5022083;28;20026;-77
2021/09/13 00:35:29;;;;;;;1.60;0.80;;;;;;;22.02;54.68;101991.31;5039624;28;20104;-78
2021/09/13 00:37:55;;;;;;;1.70;0.88;;;;;;;22.01;54.88;101989.56;5039218;28;20083;-77
2021/09/13 00:40:21;;;;;;;0.80;0.63;;;;;;;21.91;54.89;101975.50;5021542;28;20075;-78
2021/09/13 00:42:46;;;;;;;2.05;0.90;;;;;;;21.98;54.88;101979.00;5021245;28;20392;-77
2021/09/13 00:45:11;;;;;;;1.33;0.80;;;;;;;22.01;54.95;101989.56;5004638;28;20056;-78
2021/09/13 00:47:37;;;;;;;1.30;0.80;;;;;;;21.97;54.97;101978.09;5037241;28;20025;-78
2021/09/13 00:50:03;;;;;;;1.70;1.13;;;;;;;22.02;54.93;101997.47;5036520;28;20060;-77
2021/09/13 00:52:29;;;;;;;1.30;0.90;;;;;;;21.99;54.95;101994.81;5036316;28;20037;-77
2021/09/13 00:54:55;;;;;;;1.10;0.75;;;;;;;21.94;55.00;101974.63;5036434;28;20064;-77
2021/09/13 00:57:20;;;;;;;1.40;0.73;;;;;;;22.01;55.10;101986.94;5037813;28;20471;-77
2021/09/13 00:59:45;;;;;;;0.63;0.60;;;;;;;22.01;55.00;101981.66;5036344;28;20029;-77
2021/09/13 01:02:11;;;;;;;1.25;0.60;;;;;;;22.00;55.08;101987.81;5035857;28;20041;-77
2021/09/13 01:04:36;;;;;;;0.63;0.63;;;;;;;22.01;55.01;101990.44;5036046;28;20030;-77
2021/09/13 01:07:02;;;;;;;1.23;0.90;;;;;;;21.99;55.07;101988.69;5036922;28;20037;-77
2021/09/13 01:09:27;;;;;;;1.23;0.80;;;;;;;21.95;54.87;101978.97;5019466;28;20113;-78
2021/09/13 01:11:53;;;;;;;1.63;0.80;;;;;;;22.00;55.12;101988.69;5036572;28;20033;-76
2021/09/13 01:14:19;;;;;;;1.77;0.70;;;;;;;21.97;55.03;101977.22;5036579;28;20076;-78
2021/09/13 01:16:45;;;;;;;1.38;0.93;;;;;;;21.93;55.05;101972.88;5035253;28;20029;-77
2021/09/13 01:19:11;;;;;;;1.45;0.80;;;;;;;22.00;55.07;101982.53;5035560;28;20032;-77
2021/09/13 01:21:39;;;;;;;1.80;0.90;;;;;;;21.96;55.11;101979.00;5035240;28;20029;-77
2021/09/13 01:24:05;;;;;;;1.27;0.80;;;;;;;21.97;55.13;101986.00;5018638;28;20045;-77
2021/09/13 01:26:31;;;;;;;1.92;0.80;;;;;;;22.01;55.15;101989.56;5036668;28;20029;-78
2021/09/13 01:28:56;;;;;;;1.95;1.10;;;;;;;22.01;55.21;101986.94;5018606;28;20391;-78
2021/09/13 01:31:21;;;;;;;1.48;0.85;;;;;;;21.97;55.12;101975.47;5018607;28;20026;-77
2021/09/13 01:33:47;;;;;;;1.25;0.80;;;;;;;21.91;55.16;101964.97;5002552;28;20056;-78
2021/09/13 01:36:12;;;;;;;0.95;0.68;;;;;;;22.00;55.17;101977.28;5018587;28;20025;-77
2021/09/13 01:38:37;;;;;;;1.63;0.93;;;;;;;22.01;55.10;101984.28;5034900;28;20079;-78
2021/09/13 01:41:03;;;;;;;3.00;0.80;;;;;;;21.98;55.08;101979.88;5015095;28;20068;-78
2021/09/13 01:43:28;;;;;;;0.90;0.70;;;;;;;21.98;55.18;101987.78;5015058;28;20555;-77
2021/09/13 01:45:54;;;;;;;1.63;1.00;;;;;;;21.97;55.09;101980.75;5017712;28;22418;-77
2021/09/13 01:48:19;;;;;;;1.38;1.02;;;;;;;22.01;55.30;101989.56;5020313;28;20046;-78
2021/09/13 01:50:46;;;;;;;1.10;0.95;;;;;;;21.97;55.31;101971.97;5037986;28;20037;-77
2021/09/13 01:53:12;;;;;;;1.17;0.75;;;;;;;21.96;55.18;101965.81;5037992;28;20016;-78
2021/09/13 01:55:37;;;;;;;1.08;0.90;;;;;;;21.95;55.25;101969.31;5038085;28;20040;-78
2021/09/13 01:58:03;;;;;;;1.33;0.55;;;;;;;21.96;55.26;101967.56;5021883;28;20021;-78
2021/09/13 02:00:28;;;;;;;5.53;1.05;;;;;;;21.96;55.19;101971.09;5055921;28;20428;-77
2021/09/13 02:02:54;;;;;;;1.23;0.93;;;;;;;21.91;55.13;101954.44;5037515;28;20031;-78
2021/09/13 02:05:19;;;;;;;1.35;0.70;;;;;;;22.01;55.39;101973.75;5021148;28;20036;-78
2021/09/13 02:07:45;;;;;;;2.53;0.63;;;;;;;22.00;55.20;101969.38;5018274;28;20038;-77
2021/09/13 02:10:10;;;;;;;0.60;0.52;;;;;;;21.95;55.30;101958.78;5042035;28;20029;-77
2021/09/13 02:12:35;;;;;;;0.90;0.70;;;;;;;22.00;55.26;101970.25;5058459;28;20047;-77
2021/09/13 02:15:01;;;;;;;1.30;0.95;;;;;;;21.97;55.21;101961.44;5058101;28;20473;-78
2021/09/13 02:23:25;;;;;;;1.25;0.80;;;;;;;22.01;55.22;101973.75;5005605;22;20105;31
2021/09/13 02:25:50;;;;;;;0.90;0.80;;;;;;;21.95;55.33;101956.16;4968582;28;20126;-75
2021/09/13 02:28:16;;;;;;;0.93;0.65;;;;;;;21.94;55.46;101956.19;4963012;28;20497;-74
2021/09/13 02:30:42;;;;;;;1.33;0.60;;;;;;;21.99;55.33;101972.88;4976998;28;20046;-74
2021/09/13 02:33:08;;;;;;;1.05;0.73;;;;;;;21.99;55.34;101971.13;4978281;28;20395;-74
2021/09/13 02:35:34;;;;;;;0.93;0.80;;;;;;;21.85;55.32;101949.16;4977799;28;20027;-74
2021/09/13 02:37:59;;;;;;;1.17;0.82;;;;;;;21.99;55.41;101976.38;4961509;28;20088;-75
2021/09/13 02:40:24;;;;;;;1.45;0.80;;;;;;;21.97;55.50;101972.84;4958271;28;20475;-75
2021/09/13 02:42:50;;;;;;;0.82;0.60;;;;;;;21.91;55.36;101958.81;4954940;28;20455;-74
2021/09/13 02:45:16;;;;;;;1.77;0.75;;;;;;;22.00;55.38;101982.53;4942542;28;20031;-74
2021/09/13 02:47:41;;;;;;;1.05;0.80;;;;;;;22.00;55.46;101977.28;4975762;28;20511;-74
2021/09/13 02:50:08;;;;;;;1.30;0.90;;;;;;;21.99;55.53;101975.50;4958504;28;20365;-73
2021/09/13 02:52:35;;;;;;;1.33;0.80;;;;;;;21.99;55.28;101978.16;4971791;28;20081;-74
2021/09/13 02:55:00;;;;;;;1.27;0.63;;;;;;;21.95;55.50;101964.06;4977874;28;20027;-77
2021/09/13 02:57:26;;;;;;;1.73;0.80;;;;;;;21.94;55.44;101970.22;4977223;28;20040;-76
2021/09/13 02:59:52;;;;;;;0.68;0.52;;;;;;;21.94;55.60;101967.56;4960831;28;20041;-74
2021/09/13 03:02:19;;;;;;;0.75;0.65;;;;;;;21.99;55.49;101979.03;4955061;28;20023;-74
2021/09/13 03:04:44;;;;;;;1.23;0.90;;;;;;;21.96;55.41;101983.38;4961574;28;20465;-74
2021/09/13 03:07:10;;;;;;;0.70;0.60;;;;;;;21.99;55.40;101983.41;4974829;28;20034;-75
2021/09/13 03:09:36;;;;;;;1.23;0.70;;;;;;;21.93;55.50;101976.38;4991451;28;20029;-75
2021/09/13 03:12:04;;;;;;;1.55;0.60;;;;;;;21.98;55.40;101982.50;4970915;28;20038;-75
2021/09/13 03:14:29;;;;;;;1.13;0.90;;;;;;;21.98;55.34;101981.63;4984021;28;20025;-75
2021/09/13 03:16:55;;;;;;;0.63;0.50;;;;;;;21.92;55.48;101969.34;4995668;28;20388;-75
2021/09/13 03:19:20;;;;;;;0.98;0.80;;;;;;;21.95;55.54;101973.72;4997937;28;20034;-75
2021/09/13 03:21:46;;;;;;;0.98;0.68;;;;;;;21.98;55.50;101976.34;4982411;28;20027;-75
2021/09/13 03:24:11;;;;;;;0.70;0.60;;;;;;;21.94;55.70;101970.22;4969303;28;20146;-75
2021/09/13 03:26:36;;;;;;;0.98;0.60;;;;;;;21.98;55.61;101976.34;4998372;28;20044;-75
2021/09/13 03:29:02;;;;;;;0.93;0.65;;;;;;;21.93;55.52;101971.13;5002842;28;20030;-75
2021/09/13 03:31:27;;;;;;;0.65;0.52;;;;;;;21.95;55.68;101977.22;5007212;28;20010;-75
2021/09/13 03:33:53;;;;;;;0.82;0.63;;;;;;;21.93;55.51;101970.25;4970997;28;20105;-75
2021/09/13 03:36:18;;;;;;;1.02;0.57;;;;;;;21.94;55.50;101972.84;4989954;28;20034;-75
2021/09/13 03:38:44;;;;;;;1.10;0.80;;;;;;;21.95;55.61;101973.72;4978706;28;20053;-75
2021/09/13 03:41:09;;;;;;;1.75;1.52;;;;;;;21.93;55.69;101976.38;4969418;28;20034;-75
2021/09/13 03:43:34;;;;;;;0.70;0.70;;;;;;;21.89;55.52;101963.22;4971698;28;20036;-76
2021/09/13 03:46:00;;;;;;;0.90;0.60;;;;;;;21.94;55.60;101972.84;4977158;28;20476;-75
2021/09/13 03:48:25;;;;;;;1.02;0.77;;;;;;;21.88;55.67;101961.44;4983989;28;20038;-75
2021/09/13 03:50:51;;;;;;;0.70;0.60;;;;;;;21.93;55.60;101957.94;4966519;28;20032;-76
2021/09/13 03:53:16;;;;;;;0.93;0.55;;;;;;;21.97;55.49;101969.31;4964852;28;20022;-76
2021/09/13 03:55:42;;;;;;;0.60;0.60;;;;;;;21.92;55.75;101964.09;4995183;28;20026;-75
2021/09/13 03:58:07;;;;;;;1.20;0.73;;;;;;;21.92;55.59;101960.59;4961278;28;20030;-75
2021/09/13 04:00:34;;;;;;;1.30;0.80;;;;;;;21.85;55.71;101945.66;4962038;28;20124;-76
2021/09/13 04:03:01;;;;;;;2.25;1.20;;;;;;;21.92;55.64;101957.94;4996636;28;20034;-75
2021/09/13 04:05:26;;;;;;;0.57;0.40;;;;;;;21.93;55.60;101963.22;4966604;28;20031;-75
2021/09/13 04:12:43;;;;;;;0.77;0.77;;;;;;;21.92;55.64;101952.69;4995940;28;20113;-75
2021/09/13 04:15:09;;;;;;;0.63;0.50;;;;;;;21.87;55.64;101947.41;4976856;28;20083;-75
2021/09/13 04:17:34;;;;;;;0.80;0.52;;;;;;;21.86;55.68;101950.91;4996669;28;20033;-76
2021/09/13 04:20:00;;;;;;;1.42;1.08;;;;;;;21.87;55.64;101949.16;4991686;28;20058;-76
2021/09/13 04:22:25;;;;;;;0.95;0.68;;;;;;;21.90;55.72;101950.03;4992260;28;20423;-75
2021/09/13 04:24:53;;;;;;;1.02;0.55;;;;;;;21.95;55.58;101964.06;4981255;28;20080;-75
2021/09/13 04:27:19;;;;;;;0.40;0.40;;;;;;;21.91;55.57;101964.97;4998258;28;20026;-75
2021/09/13 04:29:44;;;;;;;0.93;0.50;;;;;;;21.91;55.60;101964.97;5014821;28;20048;-75
2021/09/13 04:32:09;;;;;;;1.38;0.65;;;;;;;21.88;55.73;101964.97;4980779;28;20026;-75
2021/09/13 04:34:35;;;;;;;0.73;0.50;;;;;;;21.88;55.56;101961.44;5014104;28;20547;-75
2021/09/13 04:37:00;;;;;;;1.00;0.40;;;;;;;21.91;55.52;101964.97;4996376;28;20053;-75
2021/09/13 04:39:26;;;;;;;0.75;0.45;;;;;;;21.86;55.70;101953.56;4964163;28;20030;-75
2021/09/13 04:41:51;;;;;;;0.57;0.47;;;;;;;21.93;55.60;101971.13;4963939;28;20494;-75
2021/09/13 04:44:16;;;;;;;0.55;0.50;;;;;;;21.86;55.67;101953.56;4992188;28;20380;-75
2021/09/13 04:46:42;;;;;;;0.90;0.70;;;;;;;21.91;55.39;101959.69;4989641;28;20038;-75
2021/09/13 04:49:07;;;;;;;1.73;0.88;;;;;;;21.93;55.63;101962.34;4980931;28;20026;-75
2021/09/13 04:51:33;;;;;;;0.85;0.55;;;;;;;21.88;55.64;101954.44;4987378;28;20045;-74
2021/09/13 04:54:00;;;;;;;0.43;0.40;;;;;;;21.83;55.73;101939.50;4983886;28;20017;-75
2021/09/13 04:56:26;;;;;;;0.93;0.60;;;;;;;21.92;55.76;101964.09;5016839;28;20080;-75
2021/09/13 04:58:52;;;;;;;0.70;0.60;;;;;;;21.86;55.56;101953.56;4984219;28;20030;-75
2021/09/13 05:01:17;;;;;;;1.17;0.70;;;;;;;21.87;55.63;101951.78;4989651;28;20369;-75
2021/09/13 05:03:43;;;;;;;1.42;0.80;;;;;;;21.92;55.50;101968.47;4965007;28;20034;-75
2021/09/13 05:06:08;;;;;;;0.93;0.55;;;;;;;21.92;55.56;101969.34;4968054;28;20049;-75
2021/09/13 05:08:34;;;;;;;0.93;0.60;;;;;;;21.82;55.71;101945.66;5000831;28;20030;-75
2021/09/13 05:10:59;;;;;;;1.30;0.57;;;;;;;21.88;55.58;101949.16;5000032;28;20021;-75
2021/09/13 05:13:25;;;;;;;0.70;0.57;;;;;;;21.87;55.57;101944.78;4999700;28;20030;-75
2021/09/13 05:15:50;;;;;;;0.82;0.60;;;;;;;21.83;55.66;101940.38;4979505;28;20045;-75
2021/09/13 05:18:15;;;;;;;0.80;0.50;;;;;;;21.95;55.62;101965.81;4991979;28;20029;-75
2021/09/13 05:20:41;;;;;;;1.02;0.60;;;;;;;21.97;55.62;101964.06;5010742;28;20034;-75
2021/09/13 05:23:06;;;;;;;0.60;0.50;;;;;;;21.94;55.70;101958.81;4979274;28;20038;-75
2021/09/13 05:25:31;;;;;;;1.95;0.70;;;;;;;21.82;53.60;101954.44;4979369;28;20054;-78
2021/09/13 05:27:57;;;;;;;2.40;1.48;;;;;;;21.38;52.92;101954.47;5003452;28;20025;-73
2021/09/13 05:30:22;;;;;;;1.75;1.00;;;;;;;21.16;53.20;101963.19;4982691;28;20041;-75
2021/09/13 05:32:48;;;;;;;5.60;1.30;;;;;;;20.98;52.78;101957.00;4983303;28;20160;-78
2021/09/13 05:35:13;;;;;;;2.88;1.35;;;;;;;20.79;52.64;101959.56;4998656;28;20038;-79
2021/09/13 05:37:39;;;;;;;3.80;1.40;;;;;;;20.74;52.28;101956.94;4999184;28;20030;-77
2021/09/13 05:40:06;;;;;;;4.18;1.40;;;;;;;20.64;52.16;101947.25;5016386;28;20037;-77
2021/09/13 05:42:32;;;;;;;2.00;1.02;;;;;;;20.50;52.31;101960.34;5016347;28;20025;-76
2021/09/13 05:44:57;;;;;;;7.05;2.22;;;;;;;20.37;52.81;101961.16;5015913;28;20053;-76
2021/09/13 05:47:23;;;;;;;6.60;2.10;;;;;;;20.50;52.70;101962.97;4998688;28;20476;-76
2021/09/13 05:49:48;;;;;;;4.15;2.00;;;;;;;20.68;52.50;101967.41;5015151;28;20048;-77
2021/09/13 05:52:14;;;;;;;6.85;2.33;;;;;;;20.76;52.19;101973.59;4999024;28;20083;-78
2021/09/13 05:54:39;;;;;;;3.10;1.83;;;;;;;20.75;52.15;101966.56;4998606;28;20022;-76
2021/09/13 05:57:04;;;;;;;3.72;2.00;;;;;;;20.76;52.52;101976.22;4982001;28;20033;-76
2021/09/13 05:59:30;;;;;;;5.05;2.60;;;;;;;20.85;52.32;101984.13;4998274;28;20367;-76
2021/09/13 06:01:55;;;;;;;4.75;2.30;;;;;;;20.84;52.33;101985.00;5014960;28;20106;-76
2021/09/13 06:04:20;;;;;;;3.97;2.33;;;;;;;20.88;52.32;101988.53;4998014;28;20058;-76
2021/09/13 06:06:46;;;;;;;5.55;2.67;;;;;;;20.95;52.28;101991.16;4997874;28;20029;-75
2021/09/13 06:09:13;;;;;;;4.32;1.65;;;;;;;20.95;52.55;101985.03;4998328;28;20029;-76
2021/09/13 06:11:38;;;;;;;7.22;2.17;;;;;;;20.95;52.71;101985.91;4981874;28;20060;-75
2021/09/13 06:14:04;;;;;;;2.75;1.73;;;;;;;20.78;53.06;101977.06;5015854;28;20026;-76
2021/09/13 06:16:31;;;;;;;3.92;1.70;;;;;;;20.75;53.04;101974.47;4978505;28;20034;-74
2021/09/13 06:18:56;;;;;;;3.75;1.83;;;;;;;20.76;53.20;101984.09;5007849;28;20041;-75
2021/09/13 06:21:22;;;;;;;3.80;1.98;;;;;;;20.73;53.41;101986.72;4978427;28;20034;-75
2021/09/13 06:23:48;;;;;;;3.72;1.60;;;;;;;20.73;53.79;101997.22;4995920;28;20393;-75
2021/09/13 06:26:14;;;;;;;3.95;1.38;;;;;;;20.79;53.83;101991.97;4995958;28;20030;-75
2021/09/13 06:28:40;;;;;;;3.70;1.95;;;;;;;20.80;53.87;101993.72;5001354;28;20080;-76
2021/09/13 06:31:06;;;;;;;3.15;1.17;;;;;;;20.83;53.61;101990.25;4978312;28;20471;-75
2021/09/13 06:33:32;;;;;;;5.53;1.92;;;;;;;20.79;53.43;101991.97;4995557;28;20384;-75
2021/09/13 06:35:59;;;;;;;4.03;1.83;;;;;;;20.75;53.84;101998.13;4995017;28;20030;-75
2021/09/13 06:38:25;;;;;;;4.70;1.70;;;;;;;20.90;53.54;101997.31;4977786;28;20109;-76
2021/09/13 06:40:50;;;;;;;5.25;1.27;;;;;;;21.00;53.30;101991.19;4991865;28;20112;-76
2021/09/13 06:43:17;;;;;;;4.72;1.35;;;;;;;21.08;52.91;101985.94;4997767;28;20113;-76
2021/09/13 06:45:44;;;;;;;2.10;1.10;;;;;;;21.25;52.93;102005.31;4981169;28;20041;-78
2021/09/13 06:48:12;;;;;;;4.40;1.85;;;;;;;21.42;52.93;102013.25;4946576;28;20796;-75
2021/09/13 06:50:38;;;;;;;2.22;1.23;;;;;;;21.48;52.90;102014.09;4995303;28;20163;-75
2021/09/13 06:53:05;;;;;;;6.32;2.25;;;;;;;21.55;52.88;102021.13;4977648;28;20033;-75
2021/09/13 06:55:31;;;;;;;4.95;1.83;;;;;;;21.57;53.26;102023.75;4981092;28;20028;-75
2021/09/13 06:57:57;;;;;;;5.80;1.70;;;;;;;21.54;53.04;102014.13;4997006;28;20025;-75
2021/09/13 07:00:23;;;;;;;4.43;1.33;;;;;;;21.52;52.96;102012.38;4980941;28;20022;-75
2021/09/13 07:02:49;;;;;;;3.47;1.38;;;;;;;21.55;53.19;102020.28;4992531;28;20085;-75
2021/09/13 07:05:15;;;;;;;3.65;1.33;;;;;;;21.63;53.01;102029.91;5006899;28;20026;-75
2021/09/13 07:07:40;;;;;;;2.53;1.50;;;;;;;21.57;52.81;102019.38;5003118;28;20022;-74
2021/09/13 07:10:09;;;;;;;6.13;2.35;;;;;;;21.60;53.11;102018.50;4993513;28;20033;-75
2021/09/13 07:12:36;;;;;;;3.22;1.48;;;;;;;21.64;53.24;102025.53;5012783;28;20032;-75
2021/09/13 07:15:02;;;;;;;2.35;1.15;;;;;;;21.68;53.49;102027.31;4996436;28;20444;-75
2021/09/13 07:17:27;;;;;;;2.28;1.02;;;;;;;21.61;53.22;102010.63;5013908;28;20030;-75
2021/09/13 07:19:53;;;;;;;2.28;1.23;;;;;;;21.66;53.25;102027.28;4996648;28;20044;-75
2021/09/13 07:22:19;;;;;;;2.00;1.10;;;;;;;21.65;53.60;102022.91;4996608;28;20049;-76
2021/09/13 07:24:45;;;;;;;1.85;1.25;;;;;;;21.72;53.47;102036.94;4996343;28;20086;-74
2021/09/13 07:27:11;;;;;;;2.47;1.33;;;;;;;21.61;53.62;102018.50;4996306;28;20479;-74
2021/09/13 07:29:37;;;;;;;1.92;1.15;;;;;;;21.71;53.54;102036.06;4996679;28;20034;-75
2021/09/13 07:32:04;;;;;;;3.13;1.13;;;;;;;21.74;53.67;102043.97;4996940;28;20491;-74
2021/09/13 07:34:29;;;;;;;1.92;1.02;;;;;;;21.75;53.69;102043.09;5014310;28;20484;-74
2021/09/13 07:36:56;;;;;;;2.08;1.00;;;;;;;21.76;53.68;102049.25;5014141;28;20107;-74
2021/09/13 07:39:23;;;;;;;3.53;1.52;;;;;;;21.77;53.71;102047.47;5014091;28;20057;-75
2021/09/13 07:41:48;;;;;;;2.92;1.50;;;;;;;21.76;53.78;102043.97;5014109;28;20025;-74
2021/09/13 07:44:14;;;;;;;2.47;1.55;;;;;;;21.76;53.78;102038.69;4996460;28;20030;-74
2021/09/13 07:46:39;;;;;;;1.92;1.15;;;;;;;21.80;53.66;102052.75;5013939;28;20026;-74
2021/09/13 07:49:04;;;;;;;2.05;1.30;;;;;;;21.78;53.99;102050.13;4996366;28;20029;-74
2021/09/13 07:51:30;;;;;;;3.72;1.10;;;;;;;21.80;53.98;102056.28;4996987;28;20052;-75
2021/09/13 07:53:55;;;;;;;2.38;1.42;;;;;;;21.83;53.47;102064.16;4981324;28;20030;-74
2021/09/13 07:56:21;;;;;;;2.38;1.30;;;;;;;21.75;53.87;102047.47;4996342;28;20036;-75
2021/09/13 07:58:46;;;;;;;2.13;1.17;;;;;;;21.65;53.83;102032.56;4964130;28;20034;-74
2021/09/13 08:01:11;;;;;;;2.10;1.40;;;;;;;21.85;53.81;102061.50;5015792;28;20414;-74
2021/09/13 08:03:40;;;;;;;3.33;1.60;;;;;;;21.83;53.89;102053.63;5003581;28;20427;-74
2021/09/13 08:06:06;;;;;;;2.63;1.00;;;;;;;21.92;53.96;102065.94;4981458;28;20033;-74
2021/09/13 08:08:32;;;;;;;2.50;1.52;;;;;;;21.77;54.06;102039.59;4984698;28;20061;-75
2021/09/13 08:11:01;;;;;;;4.80;1.63;;;;;;;21.83;54.06;102052.72;5005659;28;20062;-75
2021/09/13 08:13:39;;;;;;;1.92;1.40;;;;;;;21.87;54.01;102060.66;5020449;28;20054;-75
2021/09/13 08:16:11;;;;;;;2.58;2.13;;;;;;;21.76;54.15;102033.44;5020772;28;20080;-75
2021/09/13 08:18:40;;;;;;;2.22;1.20;;;;;;;21.95;54.26;102068.53;5002249;28;20383;-75
2021/09/13 08:21:14;;;;;;;2.50;1.38;;;;;;;21.96;54.16;102062.38;4983526;28;20091;-74
2021/09/13 08:23:42;;;;;;;2.85;1.67;;;;;;;21.96;54.21;102068.53;5004230;28;20041;-74
2021/09/13 08:26:13;;;;;;;3.45;1.55;;;;;;;21.93;54.24;102058.03;4992217;28;20049;-74
2021/09/13 08:28:44;;;;;;;3.65;1.67;;;;;;;21.84;54.03;102047.47;5026867;28;20054;-74
2021/09/13 08:31:13;;;;;;;2.17;1.38;;;;;;;21.99;54.25;102076.47;5008366;28;20119;-74
2021/09/13 08:33:39;;;;;;;2.00;1.17;;;;;;;21.90;54.32;102060.66;5007795;28;20093;-73
2021/09/13 08:36:10;;;;;;;1.88;1.13;;;;;;;22.00;54.32;102080.88;5022811;28;20072;-74
2021/09/13 08:38:38;;;;;;;3.30;1.42;;;;;;;22.02;54.30;102071.22;5009147;28;20034;-75
2021/09/13 08:41:03;;;;;;;4.03;1.52;;;;;;;21.83;54.31;102042.19;5008504;28;20037;-74
2021/09/13 08:43:35;;;;;;;3.38;1.40;;;;;;;22.04;54.30;102090.53;5009358;28;20018;-75
2021/09/13 08:46:07;;;;;;;2.70;1.80;;;;;;;21.89;54.36;102058.91;4992332;28;20128;-74
2021/09/13 08:51:29;;;;;;;2.10;1.17;;;;;;;21.98;54.02;102073.81;5022283;28;20113;-75
2021/09/13 08:53:56;;;;;;;2.38;1.45;;;;;;;22.05;54.21;102080.88;5006789;28;20026;-74
2021/09/13 08:56:27;;;;;;;9.18;2.00;;;;;;;22.01;54.32;102076.47;4987854;28;20176;-75
2021/09/13 08:58:54;;;;;;;2.38;1.65;;;;;;;22.07;54.31;102079.97;5020287;28;20029;-72
2021/09/13 09:01:20;;;;;;;3.63;1.20;;;;;;;22.13;54.27;102092.28;4976835;28;20038;-75
2021/09/13 09:03:47;;;;;;;2.80;1.40;;;;;;;22.07;54.06;102073.88;5011050;28;20027;-74
2021/09/13 09:06:41;;;;;;;4.80;1.58;;;;;;;22.15;54.30;102094.94;5003247;28;20085;-74
2021/09/13 09:09:14;;;;;;;3.92;1.23;;;;;;;22.15;54.59;102100.19;4993911;28;20062;-74
2021/09/13 09:11:48;;;;;;;2.20;1.10;;;;;;;22.13;54.70;102108.09;4966164;28;20349;-74
2021/09/13 09:14:27;;;;;;;5.63;1.27;;;;;;;22.09;54.76;102107.22;4980613;28;20026;-74
2021/09/13 09:17:04;;;;;;;3.47;1.45;;;;;;;22.09;54.69;102098.44;4980243;28;20398;-74
2021/09/13 09:19:30;;;;;;;3.35;1.67;;;;;;;22.11;54.51;102104.56;4997635;28;20097;-74
2021/09/13 09:21:56;;;;;;;2.65;1.30;;;;;;;22.00;54.61;102095.81;4963522;28;20061;-74
2021/09/13 09:24:21;;;;;;;2.85;1.30;;;;;;;21.92;54.70;102069.44;4979406;28;20054;-74
2021/09/13 09:27:01;;;;;;;3.28;1.65;;;;;;;22.12;54.53;102108.09;4979711;28;20026;-74
2021/09/13 09:29:29;;;;;;;5.15;1.15;;;;;;;22.06;54.55;102094.06;4979286;28;20031;-74
2021/09/13 09:31:58;;;;;;;2.45;1.30;;;;;;;22.03;54.70;102090.53;4979169;28;20078;-74
2021/09/13 09:34:28;;;;;;;2.08;1.10;;;;;;;22.12;54.49;102103.69;4996416;28;20476;-74
2021/09/13 09:37:04;;;;;;;2.08;1.25;;;;;;;22.11;54.62;102101.94;4978490;28;20041;-74
2021/09/13 09:39:48;;;;;;;3.38;1.50;;;;;;;22.04;54.53;102089.66;4996549;28;20069;-74
2021/09/13 09:42:27;;;;;;;2.85;1.58;;;;;;;22.08;54.67;102094.03;4996500;28;20026;-74
2021/09/13 09:44:53;;;;;;;2.03;1.20;;;;;;;22.04;54.50;102090.53;4996196;28;20484;-74
2021/09/13 09:47:21;;;;;;;2.40;1.15;;;;;;;22.01;54.43;102077.38;4979008;28;20044;-75
2021/09/13 09:49:52;;;;;;;2.38;1.40;;;;;;;22.07;54.60;102089.66;4996400;28;20361;-74
2021/09/13 09:52:35;;;;;;;2.38;1.27;;;;;;;22.08;54.63;102092.28;4978809;28;20028;-74
2021/09/13 09:55:11;;;;;;;2.92;1.25;;;;;;;22.08;54.65;102092.28;4978799;28;20081;-75
2021/09/13 09:57:38;;;;;;;1.92;1.33;;;;;;;22.08;54.69;102094.03;4978558;28;20507;-75
2021/09/13 10:00:21;;;;;;;3.20;1.42;;;;;;;22.07;54.59;102081.78;4978841;28;20048;-76
2021/09/13 10:02:46;;;;;;;1.70;1.33;;;;;;;22.03;54.63;102088.78;4996086;28;20030;-77
2021/09/13 10:05:12;;;;;;;2.40;1.20;;;;;;;22.07;54.32;102087.03;5013303;28;20483;-74
2021/09/13 10:07:40;;;;;;;2.05;1.30;;;;;;;22.07;54.57;102087.88;4987664;28;20558;-75
2021/09/13 10:10:06;;;;;;;3.25;1.15;;;;;;;22.07;54.74;102087.03;4982505;28;20033;-74
2021/09/13 10:12:32;;;;;;;1.85;1.27;;;;;;;21.99;54.69;102071.22;4981241;28;20034;-76
2021/09/13 10:14:57;;;;;;;4.10;1.15;;;;;;;22.07;54.73;102081.78;4983872;28;20468;-75
2021/09/13 10:17:23;;;;;;;2.15;1.20;;;;;;;22.08;54.69;102081.75;4995965;28;20435;-74
2021/09/13 10:19:49;;;;;;;1.30;1.10;;;;;;;22.03;54.70;102070.34;4978550;28;20038;-73
2021/09/13 10:22:15;;;;;;;2.03;1.15;;;;;;;22.05;54.84;102079.13;4962345;28;20085;-75
2021/09/13 10:24:44;;;;;;;2.20;1.48;;;;;;;22.00;54.83;102067.72;4978231;28;20050;-76
2021/09/13 10:27:14;;;;;;;1.65;1.05;;;;;;;22.08;54.85;102083.50;4989909;28;20048;-74
2021/09/13 10:29:40;;;;;;;2.33;1.20;;;;;;;22.10;54.58;102082.63;4997497;28;20109;-75
2021/09/13 10:32:07;;;;;;;2.72;1.40;;;;;;;22.08;54.58;102080.84;4997539;28;20498;-75
2021/09/13 10:34:47;;;;;;;3.10;1.77;;;;;;;22.12;54.69;102076.47;5015459;28;20467;-74
2021/09/13 10:37:21;;;;;;;2.30;1.30;;;;;;;22.05;54.66;102067.72;5006636;28;20507;-74
2021/09/13 10:40:16;;;;;;;4.07;1.95;;;;;;;22.12;54.68;102074.72;4977941;28;20026;-74
2021/09/13 10:42:49;;;;;;;2.35;1.20;;;;;;;22.15;54.60;102079.13;5006937;28;20049;-74
2021/09/13 10:45:24;;;;;;;2.90;1.08;;;;;;;22.15;54.81;102080.00;4997466;28;20034;-75
2021/09/13 10:47:57;;;;;;;2.80;1.52;;;;;;;22.17;54.63;102085.28;5013790;28;20136;-74
2021/09/13 10:50:42;;;;;;;3.73;1.83;;;;;;;22.22;54.61;102083.50;5014891;28;20026;-75
2021/09/13 10:53:17;;;;;;;3.42;1.40;;;;;;;22.24;54.40;102076.47;4979913;28;20036;-76
2021/09/13 10:55:59;;;;;;;2.25;1.40;;;;;;;22.28;54.38;102072.97;4995125;28;20027;-73
2021/09/13 10:58:43;;;;;;;3.10;1.92;;;;;;;22.26;54.60;102072.94;4977709;28;20022;-74
2021/09/13 11:01:19;;;;;;;3.88;1.65;;;;;;;22.24;54.67;102072.06;4995092;28;20022;-75
2021/09/13 11:03:53;;;;;;;6.13;1.88;;;;;;;22.23;54.79;102072.06;4994957;28;20054;-75
2021/09/13 11:06:18;;;;;;;2.60;1.38;;;;;;;22.21;54.84;102072.06;5000026;28;20060;-76
2021/09/13 11:08:48;;;;;;;2.70;1.50;;;;;;;22.18;54.77;102072.09;4997213;28;20057;-74
2021/09/13 11:11:18;;;;;;;2.70;1.63;;;;;;;22.19;55.00;102065.06;4996881;28;20079;-75
2021/09/13 11:13:46;;;;;;;3.83;1.77;;;;;;;22.19;54.85;102067.72;5015513;28;20464;-75
2021/09/13 11:16:16;;;;;;;2.65;1.58;;;;;;;22.17;54.88;102059.81;4999592;28;20109;-74
2021/09/13 11:18:44;;;;;;;2.00;1.45;;;;;;;22.18;54.93;102065.94;4983664;28;20056;-75
2021/09/13 11:21:21;;;;;;;1.90;1.40;;;;;;;22.16;54.97;102063.31;5000497;28;20431;-75
2021/09/13 11:23:49;;;;;;;4.10;1.75;;;;;;;22.16;54.78;102059.81;5018722;28;20120;-75
2021/09/13 11:26:17;;;;;;;3.63;1.48;;;;;;;22.07;55.06;102043.09;5019352;28;20404;-74
2021/09/13 11:28:53;;;;;;;2.63;1.45;;;;;;;22.15;54.99;102056.28;5003183;28;20068;-75
2021/09/13 11:31:34;;;;;;;2.35;1.70;;;;;;;22.12;55.04;102042.22;5002702;28;20056;-75
2021/09/13 11:34:20;;;;;;;2.58;1.52;;;;;;;22.15;54.90;102044.88;5018113;28;20024;-76
2021/09/13 11:36:55;;;;;;;4.40;1.35;;;;;;;22.15;55.07;102044.88;4999070;28;20034;-76
2021/09/13 11:39:22;;;;;;;2.13;1.30;;;;;;;22.14;54.84;102040.47;5018741;28;20026;-76